createdAt,value
2022-08-01T00:00:30.296Z,14.87
2022-08-01T00:05:33.565Z,15.01
2022-08-01T00:10:36.330Z,14.95
2022-08-01T00:15:40.782Z,14.73
2022-08-01T00:20:47.034Z,14.86
2022-08-01T00:25:49.666Z,14.86
2022-08-01T00:30:52.334Z,14.72
2022-08-01T00:35:54.953Z,14.60
2022-08-01T00:41:06.838Z,14.54
2022-08-01T00:46:09.513Z,14.29
2022-08-01T00:51:12.837Z,14.08
2022-08-01T00:56:15.793Z,13.93
2022-08-01T01:01:19.425Z,13.83
2022-08-01T01:06:50.645Z,13.93
2022-08-01T01:12:41.957Z,14.13
2022-08-01T01:17:54.283Z,14.14
2022-08-01T01:22:56.959Z,14.27
2022-08-01T01:28:11.346Z,14.29
2022-08-01T01:33:15.481Z,14.32
2022-08-01T01:38:43.127Z,14.44
2022-08-01T01:43:47.861Z,14.45
2022-08-01T01:48:53.020Z,14.85
2022-08-01T01:53:57.342Z,15.44
2022-08-01T01:59:03.081Z,15.41
2022-08-01T02:04:06.051Z,16.27
2022-08-01T02:09:10.401Z,18.21
2022-08-01T02:14:15.418Z,21.23
2022-08-01T02:19:20.605Z,23.40
2022-08-01T02:24:37.889Z,25.13
2022-08-01T02:29:54.146Z,26.95
2022-08-01T02:34:58.366Z,28.72
2022-08-01T02:40:01.825Z,30.29
2022-08-01T02:45:06.643Z,31.95
2022-08-01T02:50:13.605Z,33.08
2022-08-01T02:55:18.105Z,33.94
2022-08-01T03:00:24.876Z,34.78
2022-08-01T03:05:28.550Z,34.94
2022-08-01T03:10:34.704Z,30.98
2022-08-01T03:15:40.796Z,28.08
2022-08-01T03:20:44.909Z,26.74
2022-08-01T03:25:50.983Z,25.67
2022-08-01T03:30:54.806Z,25.69
2022-08-01T03:36:01.017Z,25.34
2022-08-01T03:41:10.954Z,24.70
2022-08-01T03:46:20.137Z,25.01
2022-08-01T03:51:24.443Z,24.43
2022-08-01T03:56:28.857Z,24.19
2022-08-01T04:01:33.746Z,24.00
2022-08-01T04:06:39.790Z,23.85
2022-08-01T04:11:42.946Z,23.52
2022-08-01T04:16:45.760Z,23.21
2022-08-01T04:21:49.412Z,23.00
2022-08-01T04:26:53.749Z,22.82
2022-08-01T04:31:59.064Z,22.67
2022-08-01T04:37:03.043Z,22.53
2022-08-01T04:42:06.686Z,22.26
2022-08-01T04:47:11.062Z,22.41
2022-08-01T04:52:18.033Z,22.31
2022-08-01T04:57:22.492Z,22.41
2022-08-01T05:02:25.242Z,22.30
2022-08-01T05:07:28.064Z,22.58
2022-08-01T05:12:30.757Z,22.71
2022-08-01T05:17:37.024Z,22.70
2022-08-01T05:22:40.305Z,22.76
2022-08-01T05:27:42.971Z,22.71
2022-08-01T05:32:46.819Z,22.90
2022-08-01T05:37:49.481Z,22.89
2022-08-01T05:42:52.128Z,23.13
2022-08-01T05:47:55.292Z,23.36
2022-08-01T05:52:57.928Z,23.63
2022-08-01T05:58:00.580Z,23.73
2022-08-01T06:03:03.406Z,23.77
2022-08-01T06:08:06.153Z,24.01
2022-08-01T06:13:08.770Z,24.22
2022-08-01T06:18:12.621Z,24.43
2022-08-01T06:23:32.139Z,24.67
2022-08-01T06:28:35.538Z,24.84
2022-08-01T06:33:38.189Z,25.06
2022-08-01T06:38:40.948Z,25.25
2022-08-01T06:43:43.596Z,25.26
2022-08-01T06:48:46.213Z,25.39
2022-08-01T06:53:49.173Z,25.47
2022-08-01T06:58:52.049Z,25.83
2022-08-01T07:03:55.597Z,25.81
2022-08-01T07:09:01.454Z,26.23
2022-08-01T07:14:09.474Z,26.09
2022-08-01T07:19:13.687Z,26.11
2022-08-01T07:24:16.543Z,25.92
2022-08-01T07:29:26.099Z,26.47
2022-08-01T07:34:28.799Z,26.72
2022-08-01T07:39:31.632Z,26.53
2022-08-01T07:44:34.333Z,26.53
2022-08-01T07:49:40.415Z,26.34
2022-08-01T07:54:43.495Z,26.32
2022-08-01T07:59:46.333Z,26.62
2022-08-01T08:04:49.465Z,27.18
2022-08-01T08:09:52.344Z,27.44
2022-08-01T08:14:55.036Z,27.62
2022-08-01T08:20:03.488Z,27.60
2022-08-01T08:25:07.775Z,28.03
2022-08-01T08:30:12.222Z,28.17
2022-08-01T08:35:18.440Z,28.05
2022-08-01T08:40:30.784Z,27.94
2022-08-01T08:45:58.176Z,27.79
2022-08-01T08:50:59.645Z,27.67
2022-08-01T08:56:03.796Z,27.88
2022-08-01T09:01:07.938Z,27.79
2022-08-01T09:06:11.313Z,28.09
2022-08-01T09:11:22.630Z,27.56
2022-08-01T09:16:26.409Z,26.70
2022-08-01T09:21:29.840Z,26.93
2022-08-01T09:26:37.501Z,26.94
2022-08-01T09:31:47.436Z,26.71
2022-08-01T09:36:54.575Z,26.69
2022-08-01T09:41:59.261Z,26.17
2022-08-01T09:47:07.803Z,26.18
2022-08-01T09:52:15.354Z,27.17
2022-08-01T09:57:20.519Z,27.24
2022-08-01T10:02:37.908Z,28.02
2022-08-01T10:07:58.268Z,28.63
2022-08-01T10:13:02.363Z,28.70
2022-08-01T10:18:16.194Z,28.12
2022-08-01T10:23:40.496Z,27.75
2022-08-01T10:28:46.125Z,27.67
2022-08-01T10:33:53.120Z,27.18
2022-08-01T10:38:57.204Z,26.79
2022-08-01T10:44:01.955Z,27.17
2022-08-01T10:49:15.641Z,27.31
2022-08-01T10:54:18.377Z,27.44
2022-08-01T10:59:49.344Z,27.50
2022-08-01T11:04:57.344Z,27.32
2022-08-01T11:10:17.800Z,27.46
2022-08-01T11:15:29.710Z,27.44
2022-08-01T11:20:41.659Z,27.95
2022-08-01T11:26:05.760Z,28.49
2022-08-01T11:31:14.551Z,29.01
2022-08-01T11:36:17.892Z,29.42
2022-08-01T11:41:38.460Z,28.71
2022-08-01T11:47:14.802Z,28.61
2022-08-01T11:52:26.796Z,28.58
2022-08-01T11:57:34.327Z,28.31
2022-08-01T12:02:38.637Z,28.25
2022-08-01T12:07:42.853Z,28.03
2022-08-01T12:12:47.547Z,27.02
2022-08-01T12:17:59.886Z,26.50
2022-08-01T12:23:09.114Z,26.16
2022-08-01T12:28:16.345Z,25.81
2022-08-01T12:33:20.937Z,26.79
2022-08-01T12:38:25.935Z,26.30
2022-08-01T12:43:33.021Z,26.09
2022-08-01T12:48:35.759Z,26.92
2022-08-01T12:53:40.644Z,27.63
2022-08-01T12:58:44.504Z,27.53
2022-08-01T13:04:07.300Z,27.62
2022-08-01T13:09:15.144Z,27.98
2022-08-01T13:14:30.776Z,28.18
2022-08-01T13:19:48.215Z,28.29
2022-08-01T13:24:50.857Z,28.51
2022-08-01T13:29:54.484Z,28.67
2022-08-01T13:35:09.962Z,28.48
2022-08-01T13:40:12.978Z,28.76
2022-08-01T13:45:16.890Z,28.52
2022-08-01T13:50:26.001Z,28.76
2022-08-01T13:55:34.072Z,28.66
2022-08-01T14:00:37.906Z,28.65
2022-08-01T14:05:40.759Z,28.36
2022-08-01T14:10:43.467Z,28.13
2022-08-01T14:15:46.477Z,27.94
2022-08-01T14:20:49.197Z,27.58
2022-08-01T14:26:00.374Z,26.81
2022-08-01T14:31:09.682Z,26.82
2022-08-01T14:36:29.507Z,26.63
2022-08-01T14:41:33.726Z,26.13
2022-08-01T14:46:36.425Z,25.90
2022-08-01T14:51:39.596Z,26.04
2022-08-01T14:56:42.217Z,25.96
2022-08-01T15:01:44.914Z,25.80
2022-08-01T15:06:47.722Z,25.59
2022-08-01T15:11:50.449Z,25.37
2022-08-01T15:16:53.409Z,25.31
2022-08-01T15:21:56.109Z,25.30
2022-08-01T15:26:59.189Z,25.41
2022-08-01T15:32:02.788Z,25.32
2022-08-01T15:37:06.508Z,25.37
2022-08-01T15:42:13.965Z,25.31
2022-08-01T15:47:24.833Z,25.31
2022-08-01T15:52:31.502Z,25.40
2022-08-01T15:57:34.653Z,25.56
2022-08-01T16:02:37.219Z,25.42
2022-08-01T16:07:59.834Z,25.44
2022-08-01T16:13:07.229Z,25.37
2022-08-01T16:18:16.104Z,25.27
2022-08-01T16:23:19.031Z,24.96
2022-08-01T16:28:22.139Z,24.69
2022-08-01T16:33:49.589Z,24.49
2022-08-01T16:38:47.660Z,24.30
2022-08-01T16:43:53.437Z,24.16
2022-08-01T16:48:57.690Z,24.05
2022-08-01T16:54:01.008Z,23.76
2022-08-01T16:59:03.764Z,23.63
2022-08-01T17:04:06.740Z,23.36
2022-08-01T17:09:09.774Z,23.12
2022-08-01T17:14:12.591Z,22.95
2022-08-01T17:19:15.251Z,22.69
2022-08-01T17:24:18.801Z,22.30
2022-08-01T17:29:21.651Z,22.15
2022-08-01T17:34:24.336Z,21.82
2022-08-01T17:39:38.996Z,21.65
2022-08-01T17:44:42.349Z,21.47
2022-08-01T17:49:55.053Z,21.35
2022-08-01T17:54:58.915Z,21.02
2022-08-01T18:00:01.775Z,20.81
2022-08-01T18:05:10.845Z,20.60
2022-08-01T18:10:13.737Z,20.43
2022-08-01T18:15:23.337Z,20.29
2022-08-01T18:20:30.189Z,20.09
2022-08-01T18:25:34.089Z,19.95
2022-08-01T18:30:36.908Z,19.79
2022-08-01T18:35:52.299Z,19.56
2022-08-01T18:40:56.782Z,19.43
2022-08-01T18:46:01.295Z,19.34
2022-08-01T18:51:04.761Z,19.22
2022-08-01T18:56:14.362Z,19.11
2022-08-01T19:01:17.357Z,19.08
2022-08-01T19:06:20.231Z,19.10
2022-08-01T19:11:22.993Z,19.05
2022-08-01T19:16:26.455Z,18.96
2022-08-01T19:21:29.200Z,18.91
2022-08-01T19:26:34.376Z,18.83
2022-08-01T19:31:40.511Z,18.84
2022-08-01T19:36:47.651Z,18.84
2022-08-01T19:41:51.668Z,18.80
2022-08-01T19:46:54.724Z,18.67
2022-08-01T19:52:03.019Z,18.58
2022-08-01T19:57:08.295Z,18.49
2022-08-01T20:02:17.111Z,18.31
2022-08-01T20:07:19.848Z,18.25
2022-08-01T20:12:23.504Z,18.17
2022-08-01T20:17:26.253Z,18.13
2022-08-01T20:22:32.748Z,18.07
2022-08-01T20:27:37.712Z,17.94
2022-08-01T20:32:41.418Z,17.86
2022-08-01T20:38:06.127Z,17.86
2022-08-01T20:43:11.864Z,17.67
2022-08-01T20:48:17.397Z,17.72
2022-08-01T20:53:22.193Z,17.69
2022-08-01T20:58:58.035Z,17.72
2022-08-01T21:04:38.269Z,17.69
2022-08-01T21:09:42.598Z,17.56
2022-08-01T21:15:15.345Z,17.50
2022-08-01T21:20:19.884Z,17.37
2022-08-01T21:25:27.769Z,17.28
2022-08-01T21:30:31.820Z,17.13
2022-08-01T21:35:35.136Z,17.16
2022-08-01T21:40:38.065Z,17.09
2022-08-01T21:45:57.513Z,17.00
2022-08-01T21:51:10.952Z,16.97
2022-08-01T21:56:47.149Z,16.89
2022-08-01T22:02:18.071Z,16.82
2022-08-01T22:07:22.836Z,16.85
2022-08-01T22:12:26.044Z,16.84
2022-08-01T22:17:29.487Z,16.76
2022-08-01T22:22:51.893Z,16.64
2022-08-01T22:28:05.947Z,16.62
2022-08-01T22:33:16.283Z,16.70
2022-08-01T22:38:22.692Z,16.78
2022-08-01T22:43:38.292Z,16.68
2022-08-01T22:48:52.409Z,16.55
2022-08-01T22:54:07.066Z,16.45
2022-08-01T22:59:20.356Z,16.16
2022-08-01T23:04:39.997Z,16.08
2022-08-01T23:09:54.296Z,16.08
2022-08-01T23:14:59.837Z,16.05
2022-08-01T23:20:06.316Z,15.81
2022-08-01T23:25:11.778Z,15.89
2022-08-01T23:30:14.592Z,15.87
2022-08-01T23:35:17.200Z,15.76
2022-08-01T23:40:20.132Z,15.70
2022-08-01T23:45:23.824Z,15.59
2022-08-01T23:50:27.105Z,15.56
2022-08-01T23:55:37.629Z,15.52
